createdAt,value
2019-03-12T00:00:34.627Z,91.00
2019-03-12T00:03:03.211Z,90.90
2019-03-12T00:05:31.504Z,90.40
2019-03-12T00:08:00.760Z,90.90
2019-03-12T00:10:29.389Z,90.70
2019-03-12T00:12:57.794Z,90.20
2019-03-12T00:15:26.083Z,91.00
2019-03-12T00:17:54.356Z,90.80
2019-03-12T00:20:22.647Z,91.60
2019-03-12T00:22:50.919Z,92.70
2019-03-12T00:25:19.479Z,93.10
2019-03-12T00:27:47.754Z,93.20
2019-03-12T00:30:16.110Z,92.20
2019-03-12T00:32:44.391Z,92.20
2019-03-12T00:35:13.116Z,92.30
2019-03-12T00:37:41.379Z,91.00
2019-03-12T00:40:10.192Z,90.70
2019-03-12T00:42:38.794Z,91.30
2019-03-12T00:45:09.842Z,90.30
2019-03-12T00:47:38.407Z,90.80
2019-03-12T00:50:09.055Z,90.50
2019-03-12T00:52:37.399Z,90.90
2019-03-12T00:55:07.664Z,91.40
2019-03-12T00:57:36.341Z,90.40
2019-03-12T01:00:19.163Z,90.70
2019-03-12T01:02:47.448Z,90.60
2019-03-12T01:05:15.715Z,90.20
2019-03-12T01:07:45.119Z,90.40
2019-03-12T01:10:16.354Z,90.30
2019-03-12T01:12:44.967Z,89.70
2019-03-12T01:15:14.351Z,90.30
2019-03-12T01:17:42.961Z,90.20
2019-03-12T01:20:12.967Z,90.60
2019-03-12T01:22:41.568Z,91.00
2019-03-12T01:25:11.276Z,92.20
2019-03-12T01:27:40.002Z,91.40
2019-03-12T01:30:16.572Z,91.90
2019-03-12T01:32:45.004Z,92.00
2019-03-12T01:35:13.269Z,91.40
2019-03-12T01:37:42.806Z,91.20
2019-03-12T01:40:13.848Z,90.10
2019-03-12T01:42:42.146Z,90.20
2019-03-12T01:45:14.570Z,90.30
2019-03-12T01:47:44.422Z,90.00
2019-03-12T01:50:14.086Z,90.10
2019-03-12T01:52:42.376Z,90.50
2019-03-12T01:55:16.241Z,90.20
2019-03-12T01:57:45.726Z,90.50
2019-03-12T02:00:16.887Z,90.20
2019-03-12T02:02:45.174Z,90.60
2019-03-12T02:05:13.438Z,90.60
2019-03-12T02:07:42.044Z,91.20
2019-03-12T02:10:11.750Z,91.60
2019-03-12T02:12:40.115Z,91.70
2019-03-12T02:15:14.224Z,91.40
2019-03-12T02:17:43.963Z,91.30
2019-03-12T02:20:14.524Z,91.50
2019-03-12T02:22:43.091Z,92.00
2019-03-12T02:25:14.056Z,93.00
2019-03-12T02:27:42.627Z,92.50
2019-03-12T02:30:18.591Z,93.40
2019-03-12T02:32:46.964Z,93.80
2019-03-12T02:35:15.472Z,95.40
2019-03-12T02:37:45.276Z,96.10
2019-03-12T02:40:14.165Z,95.30
2019-03-12T02:42:42.848Z,95.90
2019-03-12T02:45:13.590Z,95.80
2019-03-12T02:47:41.953Z,97.30
2019-03-12T02:50:12.330Z,97.90
2019-03-12T02:52:41.400Z,97.80
2019-03-12T02:55:09.815Z,97.70
2019-03-12T02:57:38.467Z,97.40
2019-03-12T03:00:16.856Z,97.80
2019-03-12T03:02:45.473Z,97.40
2019-03-12T03:05:14.160Z,97.30
2019-03-12T03:07:51.749Z,97.30
2019-03-12T03:10:20.357Z,96.90
2019-03-12T03:12:48.703Z,96.20
2019-03-12T03:15:23.689Z,95.80
2019-03-12T03:17:53.150Z,95.80
2019-03-12T03:20:21.487Z,95.70
2019-03-12T03:22:49.852Z,95.30
2019-03-12T03:25:18.420Z,95.70
2019-03-12T03:27:47.023Z,95.80
2019-03-12T03:30:20.619Z,95.80
2019-03-12T03:32:48.977Z,96.10
2019-03-12T03:35:17.707Z,95.80
2019-03-12T03:37:46.368Z,95.80
2019-03-12T03:40:17.437Z,95.90
2019-03-12T03:42:46.110Z,96.20
2019-03-12T03:45:14.984Z,96.10
2019-03-12T03:47:43.341Z,96.30
2019-03-12T03:50:16.444Z,96.40
2019-03-12T03:52:44.809Z,96.30
2019-03-12T03:55:18.731Z,96.50
2019-03-12T03:57:48.354Z,96.50
2019-03-12T04:00:40.721Z,96.80
2019-03-12T04:03:09.084Z,96.70
2019-03-12T04:05:37.369Z,96.60
2019-03-12T04:08:05.725Z,96.50
2019-03-12T04:10:33.994Z,96.00
2019-03-12T04:13:03.854Z,95.40
2019-03-12T04:15:32.295Z,95.30
2019-03-12T04:18:00.681Z,95.40
2019-03-12T04:20:29.008Z,95.30
2019-03-12T04:22:57.352Z,95.40
2019-03-12T04:25:25.976Z,95.30
2019-03-12T04:27:54.320Z,95.00
2019-03-12T04:30:22.950Z,94.90
2019-03-12T04:32:51.218Z,95.00
2019-03-12T04:35:30.971Z,95.30
2019-03-12T04:37:59.491Z,95.10
2019-03-12T04:40:27.778Z,95.60
2019-03-12T04:42:57.510Z,95.50
2019-03-12T04:45:25.796Z,95.30
2019-03-12T04:47:54.426Z,95.70
2019-03-12T04:50:23.013Z,95.60
2019-03-12T04:52:51.547Z,96.00
2019-03-12T04:55:19.841Z,96.00
2019-03-12T04:57:48.180Z,96.20
2019-03-12T05:00:20.806Z,96.20
2019-03-12T05:02:49.075Z,96.40
2019-03-12T05:05:17.707Z,95.90
2019-03-12T05:07:45.980Z,95.30
2019-03-12T05:10:17.614Z,95.40
2019-03-12T05:12:46.239Z,95.60
2019-03-12T05:15:15.972Z,95.90
2019-03-12T05:17:45.336Z,95.80
2019-03-12T05:20:14.633Z,95.30
2019-03-12T05:22:42.898Z,95.10
2019-03-12T05:25:14.758Z,95.30
2019-03-12T05:27:43.168Z,95.10
2019-03-12T05:30:19.767Z,95.10
2019-03-12T05:32:48.452Z,95.20
2019-03-12T05:35:17.197Z,95.40
2019-03-12T05:37:45.835Z,95.60
2019-03-12T05:40:15.440Z,95.80
2019-03-12T05:42:43.783Z,95.70
2019-03-12T05:45:18.311Z,96.30
2019-03-12T05:47:46.676Z,96.20
2019-03-12T05:50:20.135Z,96.50
2019-03-12T05:52:49.353Z,96.10
2019-03-12T05:55:18.236Z,96.20
2019-03-12T05:57:46.920Z,96.10
2019-03-12T06:00:17.120Z,95.50
2019-03-12T06:02:45.456Z,95.30
2019-03-12T06:05:13.720Z,95.10
2019-03-12T06:07:42.016Z,95.30
2019-03-12T06:10:14.767Z,95.50
2019-03-12T06:12:43.423Z,95.50
2019-03-12T06:15:16.543Z,95.80
2019-03-12T06:17:44.836Z,95.60
2019-03-12T06:20:14.296Z,95.80
2019-03-12T06:22:42.932Z,95.40
2019-03-12T06:25:11.268Z,95.20
2019-03-12T06:27:39.907Z,95.60
2019-03-12T06:30:16.708Z,95.60
2019-03-12T06:33:18.315Z,95.70
2019-03-12T06:35:48.243Z,95.90
2019-03-12T06:38:18.463Z,95.90
2019-03-12T06:40:48.700Z,95.50
2019-03-12T06:43:22.787Z,95.50
2019-03-12T06:46:11.443Z,95.40
2019-03-12T06:48:44.654Z,95.40
2019-03-12T06:51:17.615Z,95.00
2019-03-12T06:53:56.687Z,94.50
2019-03-12T06:56:32.512Z,94.10
2019-03-12T06:59:05.366Z,93.50
2019-03-12T07:01:45.755Z,93.90
2019-03-12T07:04:18.405Z,94.10
2019-03-12T07:06:48.765Z,93.90
2019-03-12T07:09:18.983Z,93.40
2019-03-12T07:11:56.175Z,92.80
2019-03-12T07:14:32.435Z,92.60
2019-03-12T07:17:02.356Z,92.50
2019-03-12T07:19:48.749Z,92.20
2019-03-12T07:22:35.059Z,91.40
2019-03-12T07:25:21.864Z,90.40
2019-03-12T07:27:52.062Z,90.10
2019-03-12T07:30:38.508Z,87.30
2019-03-12T07:33:08.434Z,83.70
2019-03-12T07:35:41.071Z,83.50
2019-03-12T07:38:18.351Z,82.90
2019-03-12T07:40:48.331Z,80.60
2019-03-12T07:43:21.251Z,81.20
2019-03-12T07:45:57.152Z,81.80
2019-03-12T07:48:37.468Z,83.80
2019-03-12T07:51:10.428Z,83.60
2019-03-12T07:53:58.627Z,83.30
2019-03-12T07:56:21.342Z,81.50
2019-03-12T07:58:54.007Z,80.70
2019-03-12T08:01:35.722Z,77.60
2019-03-12T08:04:17.899Z,70.00
2019-03-12T08:06:55.007Z,67.50
2019-03-12T08:09:25.225Z,66.90
2019-03-12T08:12:00.925Z,69.10
2019-03-12T08:14:34.087Z,64.70
2019-03-12T08:17:07.371Z,67.60
2019-03-12T08:19:46.508Z,56.10
2019-03-12T08:22:19.588Z,53.00
2019-03-12T08:24:52.243Z,55.10
2019-03-12T08:27:25.958Z,56.80
2019-03-12T08:29:57.622Z,59.50
2019-03-12T08:32:43.937Z,56.20
2019-03-12T08:35:26.144Z,57.10
2019-03-12T08:37:56.112Z,56.70
2019-03-12T08:40:26.026Z,57.40
2019-03-12T08:42:55.967Z,60.00
2019-03-12T08:45:34.638Z,60.60
2019-03-12T08:48:16.527Z,58.30
2019-03-12T08:50:55.715Z,59.70
2019-03-12T08:53:25.651Z,58.10
2019-03-12T08:56:04.763Z,54.10
2019-03-12T08:58:53.467Z,55.20
2019-03-12T09:01:26.183Z,56.10
2019-03-12T09:04:12.675Z,58.70
2019-03-12T09:07:05.053Z,56.10
2019-03-12T09:09:50.322Z,57.60
2019-03-12T09:12:22.931Z,60.60
2019-03-12T09:14:55.827Z,58.30
2019-03-12T09:17:28.832Z,54.70
2019-03-12T09:20:04.666Z,54.70
2019-03-12T09:22:43.671Z,56.80
2019-03-12T09:25:22.954Z,56.40
2019-03-12T09:28:03.123Z,57.80
2019-03-12T09:30:33.420Z,55.90
2019-03-12T09:33:12.157Z,60.00
2019-03-12T09:35:58.260Z,57.50
2019-03-12T09:38:31.356Z,54.60
2019-03-12T09:41:01.287Z,59.10
2019-03-12T09:43:34.117Z,61.50
2019-03-12T09:46:07.420Z,63.40
2019-03-12T09:48:53.881Z,64.90
2019-03-12T09:51:24.135Z,65.00
2019-03-12T09:54:09.130Z,66.00
2019-03-12T09:56:53.383Z,62.60
2019-03-12T09:59:23.295Z,62.60
2019-03-12T10:02:11.671Z,63.90
2019-03-12T10:04:57.790Z,64.00
2019-03-12T10:07:33.380Z,60.00
2019-03-12T10:10:18.340Z,59.00
2019-03-12T10:12:47.565Z,60.00
2019-03-12T10:15:17.503Z,61.80
2019-03-12T10:17:54.053Z,63.60
2019-03-12T10:20:33.325Z,59.20
2019-03-12T10:23:20.127Z,59.70
2019-03-12T10:25:59.234Z,60.30
2019-03-12T10:28:32.552Z,60.40
2019-03-12T10:31:18.820Z,58.40
2019-03-12T10:33:58.087Z,56.50
2019-03-12T10:36:31.272Z,60.70
2019-03-12T10:39:54.710Z,62.40
2019-03-12T10:42:40.383Z,61.60
2019-03-12T10:45:27.291Z,62.40
2019-03-12T10:47:59.843Z,59.30
2019-03-12T10:50:28.455Z,57.60
2019-03-12T10:52:56.719Z,57.10
2019-03-12T10:55:25.021Z,56.00
2019-03-12T10:57:53.608Z,56.10
2019-03-12T11:00:21.874Z,52.80
2019-03-12T11:02:50.170Z,54.40
2019-03-12T11:05:18.815Z,54.20
2019-03-12T11:07:47.103Z,55.30
2019-03-12T11:10:19.524Z,53.50
2019-03-12T11:12:48.312Z,53.90
2019-03-12T11:15:17.109Z,51.40
2019-03-12T11:17:49.819Z,51.20
2019-03-12T11:20:19.558Z,55.20
2019-03-12T11:22:48.195Z,55.90
2019-03-12T11:25:26.689Z,59.30
2019-03-12T11:27:47.203Z,57.50
2019-03-12T11:30:19.411Z,55.10
2019-03-12T11:32:47.703Z,58.80
2019-03-12T11:35:16.243Z,56.70
2019-03-12T11:37:44.834Z,53.80
2019-03-12T11:40:18.396Z,53.40
2019-03-12T11:42:46.829Z,53.10
2019-03-12T11:45:18.389Z,54.30
2019-03-12T11:47:45.534Z,53.10
2019-03-12T11:50:22.587Z,54.60
2019-03-12T11:52:56.187Z,52.50
2019-03-12T11:55:21.222Z,52.50
2019-03-12T11:57:49.595Z,50.20
2019-03-12T12:00:22.760Z,51.80
2019-03-12T12:03:00.002Z,51.00
2019-03-12T12:05:21.042Z,54.00
2019-03-12T12:07:49.402Z,53.90
2019-03-12T12:10:19.299Z,52.20
2019-03-12T12:12:47.660Z,50.10
2019-03-12T12:15:16.179Z,48.90
2019-03-12T12:17:44.959Z,44.60
2019-03-12T12:20:14.530Z,45.80
2019-03-12T12:22:43.264Z,48.40
2019-03-12T12:25:19.723Z,47.70
2019-03-12T12:27:48.014Z,50.80
2019-03-12T12:30:19.867Z,47.70
2019-03-12T12:32:48.457Z,49.40
2019-03-12T12:35:17.727Z,48.10
2019-03-12T12:37:46.357Z,46.30
2019-03-12T12:40:22.207Z,49.60
2019-03-12T12:42:50.514Z,49.70
2019-03-12T12:45:22.152Z,47.90
2019-03-12T12:47:50.520Z,46.30
2019-03-12T12:50:19.119Z,49.80
2019-03-12T12:52:47.418Z,49.10
2019-03-12T12:55:16.296Z,49.10
2019-03-12T12:57:44.875Z,49.50
2019-03-12T13:00:19.051Z,51.00
2019-03-12T13:02:47.436Z,51.10
2019-03-12T13:05:15.699Z,50.70
2019-03-12T13:07:44.351Z,49.70
2019-03-12T13:10:29.971Z,50.30
2019-03-12T13:12:58.617Z,51.40
2019-03-12T13:15:26.891Z,49.80
2019-03-12T13:17:55.263Z,48.10
2019-03-12T13:20:23.545Z,47.10
2019-03-12T13:22:52.247Z,49.00
2019-03-12T13:25:20.590Z,49.00
2019-03-12T13:27:49.226Z,50.60
2019-03-12T13:30:24.363Z,50.50
2019-03-12T13:32:53.855Z,51.70
2019-03-12T13:35:22.127Z,51.10
2019-03-12T13:37:50.415Z,51.20
2019-03-12T13:40:21.085Z,47.90
2019-03-12T13:42:49.563Z,48.60
2019-03-12T13:45:42.204Z,48.70
2019-03-12T13:48:10.905Z,50.20
2019-03-12T13:50:39.603Z,50.70
2019-03-12T13:53:08.255Z,51.10
2019-03-12T13:55:37.526Z,50.50
2019-03-12T13:58:06.155Z,50.10
2019-03-12T14:00:34.744Z,48.90
2019-03-12T14:03:03.087Z,45.90
2019-03-12T14:05:31.439Z,47.80
2019-03-12T14:07:59.735Z,46.40
2019-03-12T14:10:28.487Z,47.40
2019-03-12T14:12:57.891Z,49.30
2019-03-12T14:15:29.034Z,50.20
2019-03-12T14:17:57.624Z,51.10
2019-03-12T14:20:52.520Z,50.10
2019-03-12T14:23:32.651Z,49.90
2019-03-12T14:26:01.255Z,50.10
2019-03-12T14:28:29.873Z,51.10
2019-03-12T14:30:58.216Z,50.90
2019-03-12T14:33:26.520Z,51.70
2019-03-12T14:35:54.846Z,51.80
2019-03-12T14:38:23.137Z,52.50
2019-03-12T14:40:51.756Z,51.50
2019-03-12T14:43:20.048Z,51.40
2019-03-12T14:45:50.158Z,51.50
2019-03-12T14:48:42.489Z,51.80
2019-03-12T14:51:17.044Z,51.00
2019-03-12T14:53:48.742Z,50.90
2019-03-12T14:56:17.007Z,51.20
2019-03-12T14:58:45.302Z,50.30
2019-03-12T15:01:13.643Z,50.40
2019-03-12T15:03:41.934Z,51.10
2019-03-12T15:06:10.207Z,51.20
2019-03-12T15:08:38.768Z,50.60
2019-03-12T15:11:07.027Z,51.50
2019-03-12T15:13:35.318Z,52.40
2019-03-12T15:16:03.592Z,51.50
2019-03-12T15:18:31.884Z,51.40
2019-03-12T15:21:00.155Z,51.80
2019-03-12T15:23:28.440Z,52.00
2019-03-12T15:25:56.707Z,52.40
2019-03-12T15:28:24.994Z,52.40
2019-03-12T15:30:53.258Z,52.30
2019-03-12T15:33:21.544Z,51.90
2019-03-12T15:35:50.167Z,52.80
2019-03-12T15:38:18.756Z,52.60
2019-03-12T15:40:47.023Z,52.10
2019-03-12T15:43:15.624Z,52.40
2019-03-12T15:45:43.896Z,52.30
2019-03-12T15:48:12.187Z,52.50
2019-03-12T15:50:40.776Z,52.40
2019-03-12T15:53:09.067Z,53.00
2019-03-12T15:55:37.335Z,52.70
2019-03-12T15:58:05.599Z,53.50
2019-03-12T16:00:34.208Z,52.70
2019-03-12T16:03:02.791Z,53.20
2019-03-12T16:05:31.050Z,53.40
2019-03-12T16:07:59.310Z,53.10
2019-03-12T16:10:27.953Z,53.00
2019-03-12T16:12:56.627Z,53.10
2019-03-12T16:15:24.920Z,52.30
2019-03-12T16:17:53.184Z,52.60
2019-03-12T16:20:22.712Z,52.40
2019-03-12T16:22:51.016Z,51.70
2019-03-12T16:25:19.571Z,52.40
2019-03-12T16:27:47.932Z,52.20
2019-03-12T16:30:18.421Z,50.60
2019-03-12T16:32:46.975Z,51.20
2019-03-12T16:35:15.616Z,51.90
2019-03-12T16:37:44.259Z,50.00
2019-03-12T16:40:18.691Z,50.30
2019-03-12T16:42:47.029Z,50.10
2019-03-12T16:45:19.939Z,50.30
2019-03-12T16:47:48.531Z,50.90
2019-03-12T16:50:18.036Z,50.00
2019-03-12T16:52:46.311Z,50.30
2019-03-12T16:55:16.205Z,50.10
2019-03-12T16:57:44.544Z,50.40
2019-03-12T17:00:19.048Z,50.50
2019-03-12T17:02:47.310Z,51.20
2019-03-12T17:05:15.915Z,51.70
2019-03-12T17:07:44.178Z,51.20
2019-03-12T17:10:17.550Z,52.90
2019-03-12T17:12:45.949Z,51.10
2019-03-12T17:15:16.308Z,51.50
2019-03-12T17:17:44.891Z,51.60
2019-03-12T17:20:14.624Z,51.70
2019-03-12T17:22:43.292Z,51.30
2019-03-12T17:25:11.847Z,51.40
2019-03-12T17:27:40.479Z,52.30
2019-03-12T17:30:19.411Z,52.20
2019-03-12T17:32:47.745Z,52.50
2019-03-12T17:35:38.539Z,52.20
2019-03-12T17:38:07.169Z,52.30
2019-03-12T17:40:35.527Z,52.30
2019-03-12T17:43:04.135Z,52.10
2019-03-12T17:45:35.490Z,51.20
2019-03-12T17:48:03.894Z,50.50
2019-03-12T17:50:32.183Z,50.70
2019-03-12T17:53:00.452Z,51.50
2019-03-12T17:55:28.744Z,51.80
2019-03-12T17:57:57.081Z,52.20
2019-03-12T18:00:29.911Z,51.80
2019-03-12T18:02:58.467Z,52.00
2019-03-12T18:05:27.064Z,51.00
2019-03-12T18:07:55.403Z,51.00
2019-03-12T18:10:24.027Z,50.60
2019-03-12T18:12:52.623Z,49.90
2019-03-12T18:15:21.828Z,49.40
2019-03-12T18:17:50.507Z,48.60
2019-03-12T18:20:23.397Z,50.00
2019-03-12T18:22:51.698Z,48.50
2019-03-12T18:25:32.033Z,48.00
2019-03-12T18:28:00.621Z,47.80
2019-03-12T18:30:29.347Z,47.60
2019-03-12T18:32:57.690Z,47.20
2019-03-12T18:35:27.495Z,46.90
2019-03-12T18:37:55.767Z,46.40
2019-03-12T18:40:25.812Z,46.40
2019-03-12T18:42:54.091Z,46.50
2019-03-12T18:45:30.713Z,46.90
2019-03-12T18:47:59.252Z,46.60
2019-03-12T18:50:27.717Z,46.90
2019-03-12T18:52:55.981Z,46.50
2019-03-12T18:55:38.413Z,47.30
2019-03-12T18:58:07.562Z,46.70
2019-03-12T19:00:36.891Z,46.20
2019-03-12T19:03:05.620Z,47.80
2019-03-12T19:05:35.332Z,47.50
2019-03-12T19:08:03.598Z,47.60
2019-03-12T19:10:32.299Z,47.40
2019-03-12T19:13:00.563Z,47.60
2019-03-12T19:15:28.863Z,48.40
2019-03-12T19:17:57.556Z,47.70
2019-03-12T19:20:25.843Z,47.90
2019-03-12T19:22:54.419Z,48.20
2019-03-12T19:25:33.852Z,48.50
2019-03-12T19:28:02.126Z,49.50
2019-03-12T19:30:30.478Z,48.70
2019-03-12T19:33:00.383Z,49.00
2019-03-12T19:35:31.436Z,49.20
2019-03-12T19:38:19.238Z,48.80
2019-03-12T19:40:50.675Z,50.20
2019-03-12T19:43:19.258Z,49.10
2019-03-12T19:45:47.843Z,49.20
2019-03-12T19:48:17.551Z,49.20
2019-03-12T19:50:46.143Z,49.60
2019-03-12T19:53:15.553Z,48.60
2019-03-12T19:55:49.716Z,49.20
2019-03-12T19:58:19.790Z,48.10
2019-03-12T20:00:48.255Z,48.80
2019-03-12T20:03:16.856Z,48.20
2019-03-12T20:05:45.216Z,49.00
2019-03-12T20:08:13.841Z,49.60
2019-03-12T20:10:54.471Z,48.80
2019-03-12T20:13:59.025Z,48.40
2019-03-12T20:16:42.563Z,48.20
2019-03-12T20:19:32.054Z,49.10
2019-03-12T20:22:37.015Z,47.70
2019-03-12T20:25:33.126Z,48.30
2019-03-12T20:28:27.284Z,46.80
2019-03-12T20:31:15.584Z,46.30
2019-03-12T20:34:14.827Z,46.30
2019-03-12T20:37:07.455Z,47.00
2019-03-12T20:39:54.074Z,46.00
2019-03-12T20:42:45.367Z,45.90
2019-03-12T20:45:48.954Z,45.80
2019-03-12T20:48:43.867Z,45.80
2019-03-12T20:51:33.812Z,46.50
2019-03-12T20:54:37.607Z,45.10
2019-03-12T20:57:12.539Z,45.00
2019-03-12T21:00:17.692Z,44.90
2019-03-12T21:03:12.838Z,44.50
2019-03-12T21:06:17.802Z,43.80
2019-03-12T21:09:23.011Z,43.40
2019-03-12T21:12:08.899Z,43.70
2019-03-12T21:15:13.995Z,43.10
2019-03-12T21:18:14.935Z,42.90
2019-03-12T21:21:02.966Z,42.70
2019-03-12T21:23:53.037Z,43.70
2019-03-12T21:26:36.399Z,43.20
2019-03-12T21:29:27.577Z,42.60
2019-03-12T21:31:56.256Z,42.40
2019-03-12T21:34:24.556Z,43.00
2019-03-12T21:36:53.249Z,43.30
2019-03-12T21:39:21.915Z,43.40
2019-03-12T21:41:50.186Z,44.60
2019-03-12T21:44:18.539Z,45.10
2019-03-12T21:46:47.019Z,44.90
2019-03-12T21:49:15.307Z,44.80
2019-03-12T21:51:43.935Z,45.40
2019-03-12T21:54:12.523Z,45.60
2019-03-12T21:56:40.788Z,45.30
2019-03-12T21:59:09.400Z,45.50
2019-03-12T22:01:37.992Z,46.20
2019-03-12T22:04:06.278Z,48.40
2019-03-12T22:06:34.550Z,47.20
2019-03-12T22:09:04.376Z,46.60
2019-03-12T22:11:32.703Z,46.50
2019-03-12T22:14:01.319Z,45.00
2019-03-12T22:16:29.588Z,44.60
2019-03-12T22:18:57.875Z,43.80
2019-03-12T22:21:27.853Z,43.20
2019-03-12T22:23:57.784Z,43.80
2019-03-12T22:26:26.126Z,44.40
2019-03-12T22:28:54.695Z,44.40
2019-03-12T22:31:23.284Z,42.40
2019-03-12T22:33:51.571Z,42.90
2019-03-12T22:36:19.836Z,42.90
2019-03-12T22:38:48.135Z,43.80
2019-03-12T22:41:16.823Z,44.20
2019-03-12T22:43:45.108Z,44.20
2019-03-12T22:46:13.370Z,43.80
2019-03-12T22:48:41.972Z,44.60
2019-03-12T22:51:10.555Z,44.10
2019-03-12T22:53:38.819Z,44.00
2019-03-12T22:56:07.437Z,44.00
2019-03-12T22:58:36.119Z,44.40
2019-03-12T23:01:04.709Z,44.50
2019-03-12T23:03:33.304Z,44.40
2019-03-12T23:06:01.997Z,44.20
2019-03-12T23:08:30.679Z,43.60
2019-03-12T23:10:58.964Z,43.50
2019-03-12T23:13:27.231Z,43.30
2019-03-12T23:15:55.523Z,43.40
2019-03-12T23:18:24.047Z,43.40
2019-03-12T23:20:52.330Z,44.50
2019-03-12T23:23:20.878Z,44.90
2019-03-12T23:25:49.574Z,45.10
2019-03-12T23:28:17.831Z,45.90
2019-03-12T23:30:46.437Z,45.80
2019-03-12T23:33:15.128Z,45.30
2019-03-12T23:35:43.714Z,45.60
2019-03-12T23:38:12.303Z,44.80
2019-03-12T23:40:40.591Z,45.60
2019-03-12T23:43:09.167Z,48.30
2019-03-12T23:45:37.760Z,52.70
2019-03-12T23:48:06.344Z,53.90
2019-03-12T23:50:34.935Z,58.10
2019-03-12T23:53:03.204Z,58.60
2019-03-12T23:55:31.761Z,60.00
2019-03-12T23:58:00.094Z,61.90
